createdAt,value
2018-08-12T00:00:49.521Z,0
2018-08-12T00:01:49.286Z,0
2018-08-12T00:02:34.908Z,0
2018-08-12T00:04:34.694Z,0
2018-08-12T00:05:34.977Z,0
2018-08-12T00:06:49.656Z,0
2018-08-12T00:07:35.016Z,0
2018-08-12T00:08:35.045Z,0
2018-08-12T00:09:34.555Z,0
2018-08-12T00:10:34.836Z,0
2018-08-12T00:11:35.112Z,0
2018-08-12T00:12:34.880Z,0
2018-08-12T00:13:49.566Z,0
2018-08-12T00:14:35.177Z,0
2018-08-12T00:15:35.251Z,0
2018-08-12T00:16:49.888Z,0
2018-08-12T00:17:35.247Z,0
2018-08-12T00:18:49.947Z,0
2018-08-12T00:19:35.043Z,0
2018-08-12T00:20:35.321Z,0
2018-08-12T00:21:35.346Z,0
2018-08-12T00:22:35.110Z,0
2018-08-12T00:23:35.387Z,0
2018-08-12T00:24:35.414Z,0
2018-08-12T00:25:35.448Z,0
2018-08-12T00:26:35.457Z,0
2018-08-12T00:27:35.220Z,0
2018-08-12T00:28:35.510Z,0
2018-08-12T00:29:49.978Z,0
2018-08-12T00:30:50.210Z,0
2018-08-12T00:31:35.318Z,0
2018-08-12T00:32:35.608Z,0
2018-08-12T00:33:50.020Z,0
2018-08-12T00:34:50.300Z,0
2018-08-12T00:35:35.666Z,0
2018-08-12T00:36:35.685Z,0
2018-08-12T00:37:35.716Z,0
2018-08-12T00:38:35.482Z,0
2018-08-12T00:39:49.905Z,0
2018-08-12T00:41:35.804Z,0
2018-08-12T00:42:35.824Z,0
2018-08-12T00:43:35.591Z,0
2018-08-12T00:44:35.872Z,0
2018-08-12T00:45:50.555Z,0
2018-08-12T00:46:35.934Z,0
2018-08-12T00:47:35.676Z,0
2018-08-12T00:48:50.625Z,0
2018-08-12T00:49:50.643Z,0
2018-08-12T00:50:35.755Z,0
2018-08-12T00:51:50.174Z,0
2018-08-12T00:52:35.541Z,0
2018-08-12T00:54:36.104Z,0
2018-08-12T00:55:36.129Z,0
2018-08-12T00:56:36.144Z,0
2018-08-12T00:57:36.173Z,0
2018-08-12T00:58:35.674Z,0
2018-08-12T00:59:35.959Z,0
2018-08-12T01:01:05.559Z,0
2018-08-12T01:01:36.265Z,0
2018-08-12T01:02:36.028Z,0
2018-08-12T01:04:35.552Z,0
2018-08-12T01:05:36.349Z,0
2018-08-12T01:07:35.880Z,0
2018-08-12T01:08:51.083Z,0
2018-08-12T01:09:36.440Z,0
2018-08-12T01:10:36.469Z,0
2018-08-12T01:11:36.491Z,0
2018-08-12T01:12:36.510Z,0
2018-08-12T01:13:36.015Z,0
2018-08-12T01:14:36.558Z,0
2018-08-12T01:15:36.578Z,0
2018-08-12T01:16:36.634Z,0
2018-08-12T01:17:36.620Z,0
2018-08-12T01:18:36.650Z,0
2018-08-12T01:19:36.678Z,0
2018-08-12T01:20:36.697Z,0
2018-08-12T01:21:36.718Z,0
2018-08-12T01:22:36.737Z,0
2018-08-12T01:23:36.762Z,0
2018-08-12T01:24:51.442Z,0
2018-08-12T01:25:36.546Z,0
2018-08-12T01:26:51.490Z,0
2018-08-12T01:27:36.595Z,0
2018-08-12T01:29:36.901Z,0
2018-08-12T01:30:36.919Z,0
2018-08-12T01:31:36.681Z,0
2018-08-12T01:32:51.624Z,0
2018-08-12T01:33:36.469Z,0
2018-08-12T01:34:51.670Z,0
2018-08-12T01:35:36.775Z,0
2018-08-12T01:36:37.064Z,0
2018-08-12T01:38:51.769Z,0
2018-08-12T01:39:37.142Z,0
2018-08-12T01:40:51.805Z,0
2018-08-12T01:41:36.913Z,0
2018-08-12T01:42:37.194Z,0
2018-08-12T01:43:37.215Z,0
2018-08-12T01:44:37.242Z,0
2018-08-12T01:45:37.257Z,0
2018-08-12T01:47:37.312Z,0
2018-08-12T01:48:51.728Z,0
2018-08-12T01:49:51.759Z,0
2018-08-12T01:50:37.115Z,0
2018-08-12T01:51:37.138Z,0
2018-08-12T01:52:37.417Z,0
2018-08-12T01:53:37.174Z,0
2018-08-12T01:56:37.516Z,0
2018-08-12T01:57:52.190Z,0
2018-08-12T01:58:37.555Z,0
2018-08-12T01:59:37.580Z,0
2018-08-12T02:00:37.631Z,0
2018-08-12T02:01:37.627Z,0
2018-08-12T02:02:37.381Z,0
2018-08-12T02:03:37.408Z,0
2018-08-12T02:04:52.362Z,0
2018-08-12T02:05:37.708Z,0
2018-08-12T02:06:52.392Z,0
2018-08-12T02:08:37.775Z,0
2018-08-12T02:09:37.800Z,0
2018-08-12T02:10:37.568Z,0
2018-08-12T02:11:52.514Z,0
2018-08-12T02:12:37.861Z,0
2018-08-12T02:13:37.919Z,0
2018-08-12T02:14:37.913Z,0
2018-08-12T02:15:37.942Z,0
2018-08-12T02:16:37.702Z,0
2018-08-12T02:17:37.720Z,0
2018-08-12T02:18:37.747Z,0
2018-08-12T02:19:52.709Z,0
2018-08-12T02:20:52.453Z,0
2018-08-12T02:21:37.553Z,0
2018-08-12T02:22:37.828Z,0
2018-08-12T02:23:38.113Z,0
2018-08-12T02:24:38.140Z,0
2018-08-12T02:25:37.904Z,0
2018-08-12T02:26:37.922Z,0
2018-08-12T02:27:37.687Z,0
2018-08-12T02:28:38.226Z,0
2018-08-12T02:29:37.988Z,0
2018-08-12T02:30:38.271Z,0
2018-08-12T02:31:37.777Z,0
2018-08-12T02:32:38.321Z,0
2018-08-12T02:33:53.011Z,0
2018-08-12T02:34:38.375Z,0
2018-08-12T02:35:53.051Z,0
2018-08-12T02:36:38.165Z,0
2018-08-12T02:37:38.424Z,0
2018-08-12T02:38:38.451Z,0
2018-08-12T02:39:38.477Z,0
2018-08-12T02:40:38.497Z,0
2018-08-12T02:41:38.524Z,0
2018-08-12T02:42:38.542Z,0
2018-08-12T02:43:38.563Z,0
2018-08-12T02:44:38.585Z,0
2018-08-12T02:45:38.659Z,0
2018-08-12T02:46:38.666Z,0
2018-08-12T02:47:38.391Z,0
2018-08-12T02:48:38.682Z,0
2018-08-12T02:49:38.698Z,0
2018-08-12T02:50:38.722Z,0
2018-08-12T02:51:38.740Z,0
2018-08-12T02:52:38.764Z,0
2018-08-12T02:53:38.525Z,0
2018-08-12T02:54:53.462Z,0
2018-08-12T02:55:38.850Z,0
2018-08-12T02:56:38.864Z,0
2018-08-12T02:57:38.889Z,0
2018-08-12T02:58:38.893Z,0
2018-08-12T02:59:38.657Z,0
2018-08-12T03:00:38.941Z,4
2018-08-12T03:01:53.363Z,4
2018-08-12T03:02:39.020Z,0
2018-08-12T03:03:39.000Z,4
2018-08-12T03:04:39.034Z,4
2018-08-12T03:05:38.818Z,0
2018-08-12T03:06:39.067Z,4
2018-08-12T03:07:53.750Z,4
2018-08-12T03:08:39.134Z,8
2018-08-12T03:09:39.138Z,8
2018-08-12T03:10:38.644Z,8
2018-08-12T03:11:39.182Z,8
2018-08-12T03:12:39.213Z,12
2018-08-12T03:13:39.226Z,12
2018-08-12T03:14:53.916Z,16
2018-08-12T03:15:39.018Z,16
2018-08-12T03:16:53.951Z,20
2018-08-12T03:17:53.971Z,20
2018-08-12T03:18:39.332Z,24
2018-08-12T03:19:39.361Z,24
2018-08-12T03:20:39.380Z,32
2018-08-12T03:21:39.395Z,36
2018-08-12T03:22:54.354Z,44
2018-08-12T03:23:53.845Z,48
2018-08-12T03:24:39.207Z,56
2018-08-12T03:25:39.489Z,64
2018-08-12T03:26:54.185Z,76
2018-08-12T03:27:39.526Z,84
2018-08-12T03:28:39.550Z,96
2018-08-12T03:29:39.577Z,108
2018-08-12T03:30:39.354Z,120
2018-08-12T03:31:39.627Z,132
2018-08-12T03:32:39.639Z,144
2018-08-12T03:33:39.658Z,160
2018-08-12T03:34:39.679Z,180
2018-08-12T03:35:39.443Z,200
2018-08-12T03:36:39.731Z,232
2018-08-12T03:37:39.487Z,264
2018-08-12T03:38:39.515Z,308
2018-08-12T03:39:54.454Z,364
2018-08-12T03:40:39.560Z,404
2018-08-12T03:41:39.834Z,456
2018-08-12T03:42:54.518Z,520
2018-08-12T03:43:39.875Z,556
2018-08-12T03:44:39.907Z,600
2018-08-12T03:45:39.931Z,644
2018-08-12T03:46:39.946Z,688
2018-08-12T03:47:54.374Z,752
2018-08-12T03:48:39.991Z,784
2018-08-12T03:49:54.677Z,852
2018-08-12T03:50:39.775Z,888
2018-08-12T03:51:39.804Z,936
2018-08-12T03:52:39.821Z,988
2018-08-12T03:53:39.843Z,1040
2018-08-12T03:54:40.129Z,1092
2018-08-12T03:55:54.807Z,1164
2018-08-12T03:56:54.829Z,1232
2018-08-12T03:57:39.670Z,1284
2018-08-12T03:58:39.955Z,1364
2018-08-12T03:59:40.233Z,1444
2018-08-12T04:00:40.250Z,1520
2018-08-12T04:01:54.420Z,1612
2018-08-12T04:02:40.322Z,1680
2018-08-12T04:03:40.065Z,1780
2018-08-12T04:04:40.083Z,1884
2018-08-12T04:05:40.104Z,1992
2018-08-12T04:06:40.383Z,2088
2018-08-12T04:07:40.149Z,2164
2018-08-12T04:08:40.432Z,2260
2018-08-12T04:09:40.457Z,2396
2018-08-12T04:10:54.877Z,2564
2018-08-12T04:11:40.493Z,2660
2018-08-12T04:12:40.520Z,2784
2018-08-12T04:13:40.281Z,2900
2018-08-12T04:14:55.220Z,3036
2018-08-12T04:15:40.582Z,3100
2018-08-12T04:17:54.773Z,3204
2018-08-12T04:18:40.653Z,3232
2018-08-12T04:19:40.670Z,3304
2018-08-12T04:20:40.720Z,3380
2018-08-12T04:21:40.796Z,3376
2018-08-12T04:22:40.736Z,3524
2018-08-12T04:23:40.769Z,3632
2018-08-12T04:24:40.522Z,4644
2018-08-12T04:25:40.802Z,4100
2018-08-12T04:26:40.826Z,3416
2018-08-12T04:27:40.850Z,3560
2018-08-12T04:28:40.871Z,3452
2018-08-12T04:29:40.642Z,3552
2018-08-12T04:30:40.919Z,3660
2018-08-12T04:32:40.701Z,3796
2018-08-12T04:33:40.718Z,3876
2018-08-12T04:34:41.001Z,3916
2018-08-12T04:35:41.024Z,4144
2018-08-12T04:37:41.075Z,4652
2018-08-12T04:38:55.751Z,5152
2018-08-12T04:39:41.112Z,5152
2018-08-12T04:41:41.158Z,4980
2018-08-12T04:42:55.595Z,5124
2018-08-12T04:43:55.608Z,5536
2018-08-12T04:44:55.888Z,6768
2018-08-12T04:45:40.987Z,7692
2018-08-12T04:46:41.014Z,8672
2018-08-12T04:47:55.694Z,6708
2018-08-12T04:48:41.314Z,6096
2018-08-12T04:49:41.079Z,6304
2018-08-12T04:50:56.024Z,6924
2018-08-12T04:51:56.041Z,8040
2018-08-12T04:52:41.401Z,8340
2018-08-12T04:53:41.421Z,7332
2018-08-12T04:54:41.477Z,12424
2018-08-12T04:55:41.471Z,20832
2018-08-12T04:56:41.494Z,16800
2018-08-12T04:57:41.518Z,27520
2018-08-12T04:58:56.203Z,46112
2018-08-12T04:59:41.301Z,45920
2018-08-12T05:00:41.579Z,47712
2018-08-12T05:01:41.606Z,50656
2018-08-12T05:02:41.379Z,51616
2018-08-12T05:03:41.659Z,51488
2018-08-12T05:04:41.680Z,53824
2018-08-12T05:05:41.186Z,56928
2018-08-12T05:06:41.472Z,55456
2018-08-12T05:07:41.797Z,55776
2018-08-12T05:08:41.779Z,57888
2018-08-12T05:09:41.544Z,57152
2018-08-12T05:10:41.567Z,56832
2018-08-12T05:11:41.856Z,56992
2018-08-12T05:12:41.880Z,56416
2018-08-12T05:13:41.903Z,59008
2018-08-12T05:14:56.602Z,57792
2018-08-12T05:15:41.707Z,57376
2018-08-12T05:16:41.986Z,59584
2018-08-12T05:17:42.017Z,60928
2018-08-12T05:18:42.038Z,59424
2018-08-12T05:19:56.729Z,57632
2018-08-12T05:20:42.099Z,58144
2018-08-12T05:21:42.123Z,59136
2018-08-12T05:22:42.160Z,60768
2018-08-12T05:23:41.925Z,63584
2018-08-12T05:24:41.952Z,66784
2018-08-12T05:25:42.237Z,67168
2018-08-12T05:26:42.277Z,66624
2018-08-12T05:27:42.046Z,64768
2018-08-12T05:28:42.329Z,65792
2018-08-12T05:29:41.843Z,66784
2018-08-12T05:30:57.052Z,68352
2018-08-12T05:31:42.416Z,69952
2018-08-12T05:32:56.857Z,64128
2018-08-12T05:33:42.223Z,67520
2018-08-12T05:34:42.000Z,65760
2018-08-12T05:37:42.605Z,66432
2018-08-12T05:38:42.683Z,68192
2018-08-12T05:39:42.413Z,69216
2018-08-12T05:40:42.441Z,68032
2018-08-12T05:41:42.473Z,66848
2018-08-12T05:42:42.765Z,66176
2018-08-12T05:43:42.792Z,66976
2018-08-12T05:44:42.572Z,67072
2018-08-12T05:46:12.190Z,67936
2018-08-12T05:46:42.638Z,67872
2018-08-12T05:47:42.920Z,69568
2018-08-12T05:48:42.953Z,68736
2018-08-12T05:49:42.730Z,73024
2018-08-12T05:50:57.753Z,72576
2018-08-12T05:51:43.194Z,70528
2018-08-12T05:52:43.088Z,68384
2018-08-12T05:53:43.129Z,69056
2018-08-12T05:54:43.154Z,69504
2018-08-12T05:55:43.244Z,70912
2018-08-12T05:56:42.968Z,69760
2018-08-12T05:57:43.264Z,69984
2018-08-12T05:58:43.291Z,68736
2018-08-12T05:59:43.323Z,64896
2018-08-12T06:00:43.455Z,66720
2018-08-12T06:01:43.386Z,66976
2018-08-12T06:02:43.730Z,66528
2018-08-12T06:03:58.123Z,70912
2018-08-12T06:05:58.187Z,68160
2018-08-12T06:07:58.260Z,69152
2018-08-12T06:08:43.426Z,68096
2018-08-12T06:10:43.690Z,72832
2018-08-12T06:11:43.731Z,70496
2018-08-12T06:12:43.814Z,71040
2018-08-12T06:13:43.799Z,72128
2018-08-12T06:14:43.577Z,72864
2018-08-12T06:15:43.786Z,73280
2018-08-12T06:16:43.642Z,70528
2018-08-12T06:17:58.604Z,69120
2018-08-12T06:18:43.973Z,70624
2018-08-12T06:19:44.067Z,76320
2018-08-12T06:20:43.790Z,76320
2018-08-12T06:21:58.742Z,79296
2018-08-12T06:22:44.117Z,75456
2018-08-12T06:23:43.893Z,73472
2018-08-12T06:24:58.849Z,73280
2018-08-12T06:25:44.472Z,75904
2018-08-12T06:26:43.737Z,80704
2018-08-12T06:28:44.108Z,78976
2018-08-12T06:29:59.026Z,77216
2018-08-12T06:30:44.140Z,79648
2018-08-12T06:31:44.561Z,78688
2018-08-12T06:32:44.249Z,79136
2018-08-12T06:33:59.176Z,79136
2018-08-12T06:34:44.550Z,81088
2018-08-12T06:35:44.063Z,82240
2018-08-12T06:36:44.359Z,83296
2018-08-12T06:37:44.387Z,81344
2018-08-12T06:38:58.837Z,84800
2018-08-12T06:41:44.534Z,69728
2018-08-12T06:43:44.351Z,64672
2018-08-12T06:44:44.906Z,66272
2018-08-12T06:45:44.973Z,65856
2018-08-12T06:46:44.972Z,74752
2018-08-12T06:47:44.762Z,80672
2018-08-12T06:48:44.532Z,83232
2018-08-12T06:49:59.754Z,83744
2018-08-12T06:50:45.118Z,82976
2018-08-12T06:51:45.406Z,79584
2018-08-12T06:53:45.237Z,76448
2018-08-12T06:54:45.274Z,63456
2018-08-12T06:55:45.307Z,75008
2018-08-12T06:56:45.340Z,74304
2018-08-12T06:58:00.046Z,78240
2018-08-12T06:58:45.420Z,81408
2018-08-12T06:59:45.451Z,79456
2018-08-12T07:00:45.236Z,76512
2018-08-12T07:01:45.532Z,77824
2018-08-12T07:02:45.581Z,72320
2018-08-12T07:05:00.302Z,72928
2018-08-12T07:06:00.343Z,70368
2018-08-12T07:06:45.717Z,66432
2018-08-12T07:07:45.759Z,67808
2018-08-12T07:09:00.445Z,66624
2018-08-12T07:09:45.821Z,67232
2018-08-12T07:10:45.599Z,80128
2018-08-12T07:12:00.569Z,73344
2018-08-12T07:12:45.931Z,80768
2018-08-12T07:14:00.631Z,77696
2018-08-12T07:15:00.665Z,68288
2018-08-12T07:15:46.043Z,80928
2018-08-12T07:16:46.073Z,79392
2018-08-12T07:17:46.110Z,78240
2018-08-12T07:18:45.893Z,74752
2018-08-12T07:19:45.924Z,80096
2018-08-12T07:21:00.885Z,79040
2018-08-12T07:22:00.665Z,80384
2018-08-12T07:22:46.079Z,74688
2018-08-12T07:23:46.330Z,81248
2018-08-12T07:24:46.461Z,83104
2018-08-12T07:26:46.443Z,81056
2018-08-12T07:27:46.263Z,78848
2018-08-12T07:29:01.180Z,52608
2018-08-12T07:29:46.033Z,46976
2018-08-12T07:30:46.588Z,50816
2018-08-12T07:32:01.287Z,71968
2018-08-12T07:32:46.804Z,74048
2018-08-12T07:33:46.695Z,68512
2018-08-12T07:34:46.525Z,68608
2018-08-12T07:35:46.772Z,70752
2018-08-12T07:36:46.806Z,73600
2018-08-12T07:37:46.326Z,74880
2018-08-12T07:38:46.839Z,76736
2018-08-12T07:39:46.660Z,72896
2018-08-12T07:41:01.363Z,71616
2018-08-12T07:42:01.654Z,74048
2018-08-12T07:42:47.026Z,73472
2018-08-12T07:43:47.068Z,70880
2018-08-12T07:44:47.202Z,68800
2018-08-12T07:45:47.137Z,69440
2018-08-12T07:47:01.584Z,69472
2018-08-12T07:47:47.215Z,68416
2018-08-12T07:48:46.848Z,66784
2018-08-12T07:49:47.284Z,66528
2018-08-12T07:50:47.324Z,68960
2018-08-12T07:53:02.061Z,68416
2018-08-12T07:53:47.432Z,67936
2018-08-12T07:54:46.957Z,66144
2018-08-12T07:55:47.714Z,65472
2018-08-12T07:57:47.608Z,65344
2018-08-12T07:59:47.655Z,64768
2018-08-12T08:00:47.689Z,66400
2018-08-12T08:01:47.727Z,64000
2018-08-12T08:03:02.428Z,61504
2018-08-12T08:03:47.806Z,61760
2018-08-12T08:05:02.509Z,64160
2018-08-12T08:05:47.874Z,63968
2018-08-12T08:06:47.656Z,63616
2018-08-12T08:07:47.952Z,64192
2018-08-12T08:09:02.651Z,61056
2018-08-12T08:09:47.508Z,61696
2018-08-12T08:11:02.726Z,61344
2018-08-12T08:12:02.761Z,63776
2018-08-12T08:12:48.129Z,62272
2018-08-12T08:13:48.167Z,59584
2018-08-12T08:14:49.207Z,61088
2018-08-12T08:16:02.390Z,62432
2018-08-12T08:17:48.310Z,60896
2018-08-12T08:18:48.353Z,60320
2018-08-12T08:19:48.617Z,61344
2018-08-12T08:20:48.166Z,64512
2018-08-12T08:21:48.306Z,63456
2018-08-12T08:22:48.500Z,59168
2018-08-12T08:23:48.591Z,59744
2018-08-12T08:25:03.243Z,63040
2018-08-12T08:25:49.054Z,56256
2018-08-12T08:27:03.308Z,52704
2018-08-12T08:27:48.695Z,52480
2018-08-12T08:28:48.722Z,53248
2018-08-12T08:30:03.422Z,53728
2018-08-12T08:30:48.788Z,53888
2018-08-12T08:31:50.361Z,52320
2018-08-12T08:32:48.871Z,53824
2018-08-12T08:34:03.307Z,53472
2018-08-12T08:35:03.343Z,52384
2018-08-12T08:35:48.969Z,50784
2018-08-12T08:36:49.012Z,47776
2018-08-12T08:37:49.059Z,52224
2018-08-12T08:38:48.823Z,52448
2018-08-12T08:39:49.115Z,52448
2018-08-12T08:41:18.480Z,49152
2018-08-12T08:41:49.196Z,48800
2018-08-12T08:42:49.227Z,48576
2018-08-12T08:44:03.933Z,47392
2018-08-12T08:44:49.293Z,46944
2018-08-12T08:46:49.367Z,44096
2018-08-12T08:47:49.401Z,44384
2018-08-12T08:48:49.441Z,45984
2018-08-12T08:49:49.561Z,44768
2018-08-12T08:51:04.102Z,44544
2018-08-12T08:51:49.314Z,43584
2018-08-12T08:52:49.575Z,39456
2018-08-12T08:53:49.357Z,30080
2018-08-12T08:54:49.653Z,25056
2018-08-12T08:56:04.135Z,23648
2018-08-12T08:56:49.209Z,24224
2018-08-12T08:57:49.766Z,23840
2018-08-12T08:59:04.458Z,23104
2018-08-12T08:59:49.315Z,22912
2018-08-12T09:01:49.902Z,22688
2018-08-12T09:02:49.938Z,22464
2018-08-12T09:03:49.714Z,22688
2018-08-12T09:04:50.017Z,22752
2018-08-12T09:06:04.706Z,22080
2018-08-12T09:06:50.079Z,21952
2018-08-12T09:07:50.117Z,21952
2018-08-12T09:09:06.269Z,21984
2018-08-12T09:09:49.935Z,21504
2018-08-12T09:11:04.630Z,21536
2018-08-12T09:11:50.252Z,21408
2018-08-12T09:12:50.290Z,21376
2018-08-12T09:13:50.322Z,21056
2018-08-12T09:14:50.368Z,19776
2018-08-12T09:16:05.058Z,20992
2018-08-12T09:16:50.170Z,21184
2018-08-12T09:17:50.464Z,21216
2018-08-12T09:18:50.508Z,20800
2018-08-12T09:19:50.540Z,20704
2018-08-12T09:20:50.575Z,20768
2018-08-12T09:21:50.609Z,20576
2018-08-12T09:22:50.638Z,20320
2018-08-12T09:24:05.531Z,19808
2018-08-12T09:24:50.708Z,19616
2018-08-12T09:25:50.235Z,19808
2018-08-12T09:26:50.523Z,18944
2018-08-12T09:28:05.223Z,17276
2018-08-12T09:28:50.590Z,16508
2018-08-12T09:29:50.885Z,17476
2018-08-12T09:31:05.583Z,16436
2018-08-12T09:32:05.618Z,18912
2018-08-12T09:32:50.740Z,19392
2018-08-12T09:33:50.763Z,19392
2018-08-12T09:34:51.062Z,18720
2018-08-12T09:35:50.577Z,18784
2018-08-12T09:36:51.129Z,18400
2018-08-12T09:37:51.167Z,19104
2018-08-12T09:39:05.857Z,19168
2018-08-12T09:39:51.230Z,18912
2018-08-12T09:40:51.291Z,18432
2018-08-12T09:41:51.297Z,18496
2018-08-12T09:42:51.333Z,18208
2018-08-12T09:44:05.776Z,18368
2018-08-12T09:44:51.145Z,18240
2018-08-12T09:45:51.444Z,18368
2018-08-12T09:48:05.912Z,9544
2018-08-12T09:49:05.689Z,8784
2018-08-12T09:49:51.568Z,9020
2018-08-12T09:50:51.607Z,14100
2018-08-12T09:51:51.867Z,18016
2018-08-12T09:52:51.680Z,17888
2018-08-12T09:53:51.708Z,9936
2018-08-12T09:54:51.743Z,18624
2018-08-12T09:55:51.519Z,18016
2018-08-12T09:56:51.553Z,17984
2018-08-12T09:57:51.585Z,18080
2018-08-12T09:58:51.876Z,17920
2018-08-12T10:00:06.317Z,16676
2018-08-12T10:00:51.684Z,15956
2018-08-12T10:01:51.979Z,15360
2018-08-12T10:02:52.009Z,16228
2018-08-12T10:04:06.714Z,16696
2018-08-12T10:05:06.751Z,16768
2018-08-12T10:05:52.119Z,16524
2018-08-12T10:06:52.147Z,16508
2018-08-12T10:07:51.926Z,15996
2018-08-12T10:08:52.209Z,16104
2018-08-12T10:09:52.243Z,15276
2018-08-12T10:10:52.279Z,15788
2018-08-12T10:11:52.308Z,14604
2018-08-12T10:12:52.091Z,13376
2018-08-12T10:13:52.385Z,15616
2018-08-12T10:14:52.410Z,15412
2018-08-12T10:16:07.108Z,15840
2018-08-12T10:16:52.478Z,10972
2018-08-12T10:17:52.518Z,14152
2018-08-12T10:18:52.555Z,14656
2018-08-12T10:19:52.588Z,14204
2018-08-12T10:20:52.611Z,15708
2018-08-12T10:21:52.646Z,15836
2018-08-12T10:22:52.416Z,15696
2018-08-12T10:23:52.750Z,15472
2018-08-12T10:24:52.482Z,15392
2018-08-12T10:25:52.515Z,15200
2018-08-12T10:26:52.809Z,15144
2018-08-12T10:27:52.840Z,14112
2018-08-12T10:28:52.611Z,14256
2018-08-12T10:29:52.901Z,14308
2018-08-12T10:31:07.603Z,13920
2018-08-12T10:31:52.968Z,14184
2018-08-12T10:32:53.008Z,13788
2018-08-12T10:33:53.039Z,14184
2018-08-12T10:35:53.107Z,14488
2018-08-12T10:36:52.878Z,14620
2018-08-12T10:37:53.165Z,14564
2018-08-12T10:39:53.246Z,14324
2018-08-12T10:40:53.265Z,14508
2018-08-12T10:41:53.039Z,14576
2018-08-12T10:42:53.333Z,14340
2018-08-12T10:43:53.137Z,13932
2018-08-12T10:44:53.137Z,11972
2018-08-12T10:45:53.427Z,13084
2018-08-12T10:46:53.203Z,12868
2018-08-12T10:47:53.492Z,14316
2018-08-12T10:49:07.928Z,12968
2018-08-12T10:49:53.561Z,13632
2018-08-12T10:50:53.535Z,14780
2018-08-12T10:52:08.023Z,14408
2018-08-12T10:52:53.655Z,13728
2018-08-12T10:54:53.707Z,13424
2018-08-12T10:56:08.403Z,13504
2018-08-12T10:57:08.179Z,14408
2018-08-12T10:57:53.550Z,14228
2018-08-12T10:58:53.577Z,13680
2018-08-12T10:59:53.868Z,13316
2018-08-12T11:00:53.902Z,13884
2018-08-12T11:01:53.931Z,13444
2018-08-12T11:03:08.624Z,13000
2018-08-12T11:03:53.743Z,12920
2018-08-12T11:04:54.024Z,12056
2018-08-12T11:10:08.843Z,11764
2018-08-12T11:10:54.217Z,11512
2018-08-12T11:12:54.646Z,11844
2018-08-12T11:13:54.306Z,11808
2018-08-12T11:14:54.332Z,11676
2018-08-12T11:15:54.363Z,11556
2018-08-12T11:16:54.396Z,11124
2018-08-12T11:18:09.091Z,10720
2018-08-12T11:19:09.122Z,10696
2018-08-12T11:19:54.482Z,10560
2018-08-12T11:20:54.522Z,10296
2018-08-12T11:21:54.296Z,10188
2018-08-12T11:22:54.575Z,9416
2018-08-12T11:23:54.090Z,9468
2018-08-12T11:25:09.314Z,8660
2018-08-12T11:25:54.671Z,8756
2018-08-12T11:26:54.442Z,9088
2018-08-12T11:27:54.729Z,9292
2018-08-12T11:28:54.762Z,9356
2018-08-12T11:29:54.795Z,8692
2018-08-12T11:30:54.870Z,8372
2018-08-12T11:31:54.857Z,7976
2018-08-12T11:32:54.621Z,8344
2018-08-12T11:33:54.915Z,8788
2018-08-12T11:35:09.346Z,9092
2018-08-12T11:35:54.979Z,9468
2018-08-12T11:36:55.017Z,10148
2018-08-12T11:38:09.443Z,10984
2018-08-12T11:38:54.803Z,11276
2018-08-12T11:39:54.832Z,11624
2018-08-12T11:40:54.867Z,11804
2018-08-12T11:41:55.163Z,11700
2018-08-12T11:42:55.191Z,11236
2018-08-12T11:43:55.218Z,10680
2018-08-12T11:44:54.988Z,10488
2018-08-12T11:46:09.678Z,10120
2018-08-12T11:46:55.046Z,9968
2018-08-12T11:47:55.075Z,9716
2018-08-12T11:48:55.366Z,9452
2018-08-12T11:49:54.875Z,9160
2018-08-12T11:51:09.828Z,8836
2018-08-12T11:52:10.117Z,8608
2018-08-12T11:55:55.583Z,7860
2018-08-12T11:56:55.104Z,7724
2018-08-12T11:57:55.629Z,7696
2018-08-12T11:59:10.327Z,7516
2018-08-12T11:59:55.436Z,7472
2018-08-12T12:00:55.463Z,7348
2018-08-12T12:01:55.756Z,7216
2018-08-12T12:02:55.794Z,7080
2018-08-12T12:03:55.812Z,6876
2018-08-12T12:04:55.841Z,6732
2018-08-12T12:06:10.022Z,6608
2018-08-12T12:06:55.902Z,6556
2018-08-12T12:08:55.967Z,6472
2018-08-12T12:10:10.660Z,6444
2018-08-12T12:11:56.051Z,6372
2018-08-12T12:12:55.821Z,6388
2018-08-12T12:14:10.519Z,6380
2018-08-12T12:14:55.625Z,6372
2018-08-12T12:16:56.204Z,6300
2018-08-12T12:18:10.897Z,6332
2018-08-12T12:18:56.259Z,6344
2018-08-12T12:19:56.287Z,6424
2018-08-12T12:20:56.170Z,6440
2018-08-12T12:21:55.835Z,6408
2018-08-12T12:22:56.130Z,6392
2018-08-12T12:23:56.149Z,6408
2018-08-12T12:24:56.442Z,6428
2018-08-12T12:25:56.312Z,6432
2018-08-12T12:27:10.643Z,6360
2018-08-12T12:28:11.191Z,6400
2018-08-12T12:29:56.321Z,6376
2018-08-12T12:30:56.356Z,6400
2018-08-12T12:31:56.743Z,6416
2018-08-12T12:32:56.669Z,6404
2018-08-12T12:33:56.444Z,6324
2018-08-12T12:34:56.472Z,6304
2018-08-12T12:35:56.499Z,6332
2018-08-12T12:36:56.794Z,6372
2018-08-12T12:38:11.226Z,6432
2018-08-12T12:38:56.851Z,6440
2018-08-12T12:39:56.624Z,6460
2018-08-12T12:40:56.649Z,6384
2018-08-12T12:41:56.933Z,6408
2018-08-12T12:42:57.196Z,6376
2018-08-12T12:43:57.003Z,6508
2018-08-12T12:44:56.762Z,6540
2018-08-12T12:45:57.053Z,6492
2018-08-12T12:46:56.887Z,6488
2018-08-12T12:48:11.776Z,6428
2018-08-12T12:48:56.884Z,6440
2018-08-12T12:49:56.652Z,6488
2018-08-12T12:50:57.197Z,6516
2018-08-12T12:51:56.713Z,6508
2018-08-12T12:52:57.253Z,6592
2018-08-12T12:54:11.947Z,6536
2018-08-12T12:55:57.344Z,6460
2018-08-12T12:56:57.379Z,6360
2018-08-12T12:57:57.465Z,6448
2018-08-12T12:58:57.278Z,6408
2018-08-12T12:59:57.200Z,6400
2018-08-12T13:00:57.489Z,6448
2018-08-12T13:01:57.257Z,6500
2018-08-12T13:02:57.543Z,6528
2018-08-12T13:03:57.574Z,6556
2018-08-12T13:05:12.265Z,6544
2018-08-12T13:05:57.631Z,6560
2018-08-12T13:06:57.146Z,6592
2018-08-12T13:08:57.725Z,6532
2018-08-12T13:10:12.414Z,6608
2018-08-12T13:10:57.780Z,6508
2018-08-12T13:11:57.806Z,6484
2018-08-12T13:12:57.587Z,6540
2018-08-12T13:14:12.270Z,6536
2018-08-12T13:14:57.896Z,6520
2018-08-12T13:15:57.922Z,6512
2018-08-12T13:16:57.948Z,6508
2018-08-12T13:17:57.978Z,6428
2018-08-12T13:18:58.063Z,6524
2018-08-12T13:19:58.039Z,6504
2018-08-12T13:20:57.809Z,6528
2018-08-12T13:21:57.837Z,6528
2018-08-12T13:23:12.792Z,6512
2018-08-12T13:23:57.901Z,6536
2018-08-12T13:24:58.326Z,6536
2018-08-12T13:26:12.871Z,6556
2018-08-12T13:26:58.249Z,6568
2018-08-12T13:28:12.931Z,6580
2018-08-12T13:29:58.330Z,6580
2018-08-12T13:30:57.838Z,6548
2018-08-12T13:31:58.124Z,6556
2018-08-12T13:32:58.595Z,6560
2018-08-12T13:33:58.183Z,6568
2018-08-12T13:34:58.481Z,6552
2018-08-12T13:35:58.245Z,6560
2018-08-12T13:36:58.534Z,6408
2018-08-12T13:37:58.040Z,6320
2018-08-12T13:38:58.588Z,6336
2018-08-12T13:39:58.616Z,6272
2018-08-12T13:41:13.310Z,6316
2018-08-12T13:41:58.154Z,6392
2018-08-12T13:42:58.188Z,6304
2018-08-12T13:44:13.393Z,6344
2018-08-12T13:44:58.755Z,6324
2018-08-12T13:45:58.787Z,6288
2018-08-12T13:46:58.811Z,6328
2018-08-12T13:47:58.848Z,6376
2018-08-12T13:48:58.881Z,6388
2018-08-12T13:49:58.650Z,6388
2018-08-12T13:50:58.933Z,6364
2018-08-12T13:51:58.710Z,6392
2018-08-12T13:52:58.994Z,6352
2018-08-12T13:53:58.503Z,6344
2018-08-12T13:54:58.528Z,6340
2018-08-12T13:55:59.172Z,6316
2018-08-12T13:56:59.105Z,6348
2018-08-12T13:57:59.172Z,6376
2018-08-12T13:58:59.166Z,6356
2018-08-12T13:59:59.188Z,6360
2018-08-12T14:00:58.961Z,6360
2018-08-12T14:01:59.248Z,6420
2018-08-12T14:02:59.289Z,6384
2018-08-12T14:03:59.303Z,6320
2018-08-12T14:06:13.767Z,6208
2018-08-12T14:06:59.686Z,6340
2018-08-12T14:07:59.427Z,6336
2018-08-12T14:08:59.444Z,6256
2018-08-12T14:09:59.216Z,6232
2018-08-12T14:10:59.246Z,6288
2018-08-12T14:11:59.280Z,6272
2018-08-12T14:13:14.222Z,6272
2018-08-12T14:13:59.852Z,6268
2018-08-12T14:14:59.618Z,6276
2018-08-12T14:15:59.653Z,6212
2018-08-12T14:17:59.443Z,6112
2018-08-12T14:20:14.427Z,6228
2018-08-12T14:20:59.316Z,6328
2018-08-12T14:22:14.480Z,6392